KERO2: Robert S. Kerr Lock & Dam & Reservoir (L&D 15)

Data processed at Sun Oct 25 2020 22:29


All information presented herein is the property of the government of the United States of America and may be revised or deleted at any time without prior notice.
Dissemination of this information without the expressed written consent of the Public Affairs Office, Tulsa District U.S. Army Corps of Engineers is strictly prohibited.
These data are gathered electronically and, as presented, have not undergone any form of quality control. These data are not guaranteed to be valid or correct.
Go to home page.
Go to station list.
Go to home page.

Upstream stations:

Downstream station:
Previous Day
Next Day
Current Day
    
SHEF ID:       KERO2     RS Kerr LD15
STATION TYPE:  NAVIGATION LOCK
Navigation Pool:  Bottom =   458.00, Top =   460.00

               PRECIP ELEVATION   STORAGE   TW-ELEV    INFLOW   RELEASE  AIR-TEMP  WIND-DIRWIND-SPEED REL-HUMID SOLAR-RAD   VOLTAGE  BAT-LOAD
                   in        ft     ac-ft        ft       cfs       cfs         F       deg       mph         %      W/m2      volt      volt
              Ccp-Rev   Ccp-Rev   Ccp-Rev   Ccp-Rev  Rev-Regi  Rev-Regi   Ccp-Rev   Ccp-Rev   Ccp-Rev   Ccp-Rev   Ccp-Rev   Ccp-Rev   Ccp-Rev
(US/Central)
10/25 00:00      0.00    460.04    527495    411.87      7566         0     52.23     15.00      3.33     92.40      0.00     13.38     13.12
10/25 01:00      0.00    460.00    525690    412.22      8999         0     52.34     45.20      4.32     93.87      0.00     13.37     13.07
10/25 02:00      0.00    460.06    528397    412.03     10432         0     51.80     40.10      2.37     98.63      0.00     13.39     13.07
10/25 03:00      0.00    460.03    527044    412.06     13559      3410     51.57     48.20      0.79    100.33      0.00     13.39     13.12
10/25 04:00      0.00    460.08    529300    412.23     15593      7180     51.24     37.20      1.55    100.28      0.00     13.39     13.12
10/25 05:00      0.00    460.10    530202    412.41     11396      7320     51.03     34.20      2.48    100.22      0.00     13.41     13.12
10/25 06:00      0.00    460.11    530653    412.10     10377      7320     51.13     38.20      2.61    100.28      0.00     13.39     13.12
10/25 07:00      0.00    460.12    531104    412.20      9355     12620     51.12     38.10      1.68    100.21      0.00     13.39     13.12
10/25 08:00      0.00    460.12    531104    412.62      5767     13700     51.12     34.70      2.07    100.21      3.00     13.38     13.12
10/25 09:00      0.00    460.13    531556    412.48      3241     13880     51.67     38.50      1.68    100.28     24.00     13.38     13.07
10/25 10:00      0.00    460.04    527495    412.38      1454     13870     52.21     42.90      1.26    100.15     70.00     13.39     13.07
10/25 11:00      0.00    460.03    527044    412.37      1607     13560     52.45     37.30      1.92    100.34    126.00     13.39     13.12
10/25 12:00      0.00    460.04    527495    412.21      4904      9790     54.10     41.10      2.06     98.63    215.00     13.38     13.12
10/25 13:00      0.00    460.00    525690    411.57      4872      6380     54.86     37.10      2.79     91.54    264.00     13.39     13.07
10/25 14:00      0.00    460.03    527044    411.86      4843      6380     56.08     32.60      2.10     86.72    244.00     13.39     13.12
10/25 15:00      0.00    460.00    525690    411.50      4275      3375     56.52     40.10      1.74     80.68    221.00     13.39     13.12
10/25 16:00      0.00    459.99    525259    411.22      3707         0     56.28     30.70      2.49     78.59    127.00     13.39     13.12
10/25 17:00      0.00    460.03    527044    411.72         0      3375     56.62     31.70      1.68     78.04     92.00     13.38     13.12
10/25 18:00      0.00    459.98    524828    411.47      3806      7500     56.08     23.30      2.62     78.54     49.00     13.39     13.07
10/25 19:00      0.00    459.95    523535    411.99     12987      7720     56.19     12.70      3.64     78.97      5.00     13.39     13.12
10/25 20:00      0.00    459.98    524828    412.11     16793      7720     55.09     15.10      3.74     79.76      0.00     13.40     13.12
10/25 21:00      0.00    460.07    528848    411.80     31350      7720     54.32    354.00      3.11     79.76      0.00     13.41     13.12
10/25 22:00      ----      ----      ----      ----      ----      ----      ----      ----      ----      ----      ----      ----      ----
10/25 23:00      ----      ----      ----      ----      ----      ----      ----      ----      ----      ----      ----      ----      ----